Time,TemperatureF,DewpointF,PressureIn,WindDirection,WindDirectionDegrees,WindSpeedMPH,WindSpeedGustMPH,Humidity,HourlyPrecipIn,Conditions,Clouds,dailyrainin,SoftwareType,DateUTC
2013-03-16 00:08:00,45.9,33.0,29.81,WSW,246,0.0,3.0,61,0.00,,,0.00,weatherlink.com 1.10,2013-03-16 04:08:00,
2013-03-16 00:23:00,45.7,33.0,29.81,NW,314,2.0,5.0,62,0.00,,,0.00,weatherlink.com 1.10,2013-03-16 04:23:00,
2013-03-16 00:38:00,44.0,33.0,29.81,WNW,295,2.0,4.0,65,0.00,,,0.00,weatherlink.com 1.10,2013-03-16 04:38:00,
2013-03-16 00:53:00,43.2,33.0,29.81,WNW,298,3.0,4.0,68,0.00,,,0.00,weatherlink.com 1.10,2013-03-16 04:53:00,
2013-03-16 01:08:00,41.2,33.0,29.80,NNW,335,1.0,4.0,72,0.00,,,0.00,weatherlink.com 1.10,2013-03-16 05:08:00,
2013-03-16 01:23:00,41.1,33.0,29.81,NW,326,0.0,3.0,73,0.00,,,0.00,weatherlink.com 1.10,2013-03-16 05:23:00,
2013-03-16 01:38:00,40.2,33.0,29.80,WNW,284,0.0,3.0,76,0.00,,,0.00,weatherlink.com 1.10,2013-03-16 05:38:00,
2013-03-16 01:53:00,39.7,34.0,29.80,WSW,239,1.0,3.0,79,0.00,,,0.00,weatherlink.com 1.10,2013-03-16 05:53:00,
2013-03-16 02:08:00,39.7,33.0,29.80,SE,146,1.0,4.0,78,0.00,,,0.00,weatherlink.com 1.10,2013-03-16 06:08:00,
2013-03-16 02:23:00,41.3,34.0,29.79,SSW,201,0.0,6.0,75,0.00,,,0.00,weatherlink.com 1.10,2013-03-16 06:23:00,
2013-03-16 02:38:00,42.1,34.0,29.79,SE,134,1.0,4.0,73,0.00,,,0.00,weatherlink.com 1.10,2013-03-16 06:38:00,
2013-03-16 02:53:00,42.8,34.0,29.79,SSW,198,1.0,3.0,71,0.00,,,0.00,weatherlink.com 1.10,2013-03-16 06:53:00,
2013-03-16 03:08:00,42.5,34.0,29.78,East,100,3.0,4.0,72,0.00,,,0.00,weatherlink.com 1.10,2013-03-16 07:08:00,
2013-03-16 03:23:00,41.5,34.0,29.78,East,90,1.0,1.0,75,0.00,,,0.00,weatherlink.com 1.10,2013-03-16 07:23:00,
2013-03-16 03:38:00,41.7,34.0,29.77,SW,221,0.0,1.0,75,0.00,,,0.00,weatherlink.com 1.10,2013-03-16 07:38:00,
2013-03-16 03:53:00,40.1,34.0,29.77,SW,232,2.0,3.0,78,0.00,,,0.00,weatherlink.com 1.10,2013-03-16 07:53:00,
2013-03-16 04:08:00,39.9,34.0,29.76,West,277,0.0,3.0,80,0.00,,,0.00,weatherlink.com 1.10,2013-03-16 08:08:00,
2013-03-16 04:23:00,40.1,34.0,29.75,SSE,162,0.0,0.0,80,0.00,,,0.00,weatherlink.com 1.10,2013-03-16 08:23:00,
2013-03-16 04:38:00,39.9,34.0,29.74,SSE,153,0.0,1.0,79,0.00,,,0.00,weatherlink.com 1.10,2013-03-16 08:38:00,
2013-03-16 04:53:00,39.1,34.0,29.74,SW,229,0.0,1.0,81,0.00,,,0.00,weatherlink.com 1.10,2013-03-16 08:53:00,
2013-03-16 05:08:00,38.3,34.0,29.75,WNW,298,3.0,5.0,83,0.00,,,0.00,weatherlink.com 1.10,2013-03-16 09:08:00,
2013-03-16 05:23:00,37.9,33.0,29.76,West,262,2.0,5.0,83,0.00,,,0.00,weatherlink.com 1.10,2013-03-16 09:23:00,
2013-03-16 05:38:00,37.8,34.0,29.77,WNW,287,0.0,3.0,86,0.00,,,0.00,weatherlink.com 1.10,2013-03-16 09:38:00,
2013-03-16 05:53:00,38.8,34.0,29.77,West,261,0.0,3.0,84,0.00,,,0.00,weatherlink.com 1.10,2013-03-16 09:53:00,
2013-03-16 06:08:00,39.0,35.0,29.77,WNW,284,0.0,2.0,84,0.00,,,0.00,weatherlink.com 1.10,2013-03-16 10:08:00,
2013-03-16 06:23:00,39.4,35.0,29.77,WNW,300,4.0,4.0,84,0.00,,,0.00,weatherlink.com 1.10,2013-03-16 10:23:00,
2013-03-16 06:38:00,39.5,36.0,29.80,NW,314,6.0,8.0,87,0.02,,,0.02,weatherlink.com 1.10,2013-03-16 10:38:00,
2013-03-16 06:53:00,39.8,37.0,29.80,West,276,0.0,3.0,91,0.07,,,0.07,weatherlink.com 1.10,2013-03-16 10:53:00,
2013-03-16 07:08:00,40.4,38.0,29.78,East,89,2.0,5.0,91,0.11,,,0.11,weatherlink.com 1.10,2013-03-16 11:08:00,
2013-03-16 07:23:00,40.1,38.0,29.79,NNE,18,2.0,3.0,92,0.11,,,0.11,weatherlink.com 1.10,2013-03-16 11:23:00,
2013-03-16 07:38:00,40.4,39.0,29.78,SSW,212,0.0,4.0,93,0.09,,,0.11,weatherlink.com 1.10,2013-03-16 11:38:00,
2013-03-16 07:53:00,40.3,39.0,29.77,SSW,204,0.0,0.0,93,0.03,,,0.11,weatherlink.com 1.10,2013-03-16 11:53:00,
2013-03-16 08:08:00,40.4,39.0,29.77,SSE,153,1.0,1.0,93,0.00,,,0.11,weatherlink.com 1.10,2013-03-16 12:08:00,
2013-03-16 08:23:00,40.6,39.0,29.77,NW,319,2.0,2.0,94,0.00,,,0.11,weatherlink.com 1.10,2013-03-16 12:23:00,
2013-03-16 08:38:00,40.9,39.0,29.77,ENE,78,1.0,5.0,94,0.00,,,0.11,weatherlink.com 1.10,2013-03-16 12:38:00,
2013-03-16 08:53:00,41.3,40.0,29.77,ESE,102,0.0,1.0,94,0.00,,,0.11,weatherlink.com 1.10,2013-03-16 12:53:00,
2013-03-16 09:09:00,41.9,40.0,29.76,ESE,105,0.0,0.0,94,0.00,,,0.11,weatherlink.com 1.10,2013-03-16 13:09:00,
2013-03-16 09:24:00,42.3,41.0,29.76,East,84,0.0,1.0,93,0.00,,,0.11,weatherlink.com 1.10,2013-03-16 13:24:00,
2013-03-16 09:39:00,42.8,41.0,29.75,SE,139,1.0,1.0,92,0.00,,,0.11,weatherlink.com 1.10,2013-03-16 13:39:00,
2013-03-16 09:54:00,43.3,41.0,29.74,SE,143,1.0,3.0,91,0.00,,,0.11,weatherlink.com 1.10,2013-03-16 13:54:00,
2013-03-16 10:09:00,44.7,43.0,29.74,ESE,121,0.0,1.0,92,0.00,,,0.11,weatherlink.com 1.10,2013-03-16 14:09:00,
2013-03-16 10:24:00,46.6,44.0,29.73,South,170,0.0,1.0,90,0.00,,,0.11,weatherlink.com 1.10,2013-03-16 14:24:00,
2013-03-16 10:39:00,48.8,45.0,29.72,SSW,198,0.0,2.0,86,0.00,,,0.11,weatherlink.com 1.10,2013-03-16 14:39:00,
2013-03-16 10:54:00,48.7,45.0,29.71,ENE,77,2.0,3.0,86,0.00,,,0.11,weatherlink.com 1.10,2013-03-16 14:54:00,
2013-03-16 11:09:00,48.7,45.0,29.71,NE,55,2.0,3.0,86,0.00,,,0.11,weatherlink.com 1.10,2013-03-16 15:09:00,
2013-03-16 11:24:00,49.4,45.0,29.70,ESE,104,2.0,3.0,85,0.00,,,0.11,weatherlink.com 1.10,2013-03-16 15:24:00,
2013-03-16 11:39:00,51.4,47.0,29.69,SE,143,2.0,2.0,85,0.00,,,0.11,weatherlink.com 1.10,2013-03-16 15:39:00,
2013-03-16 11:54:00,53.7,47.0,29.70,SW,219,5.0,8.0,78,0.00,,,0.11,weatherlink.com 1.10,2013-03-16 15:54:00,
2013-03-16 12:09:00,53.7,47.0,29.67,ESE,102,2.0,6.0,77,0.01,,,0.12,weatherlink.com 1.10,2013-03-16 16:09:00,
2013-03-16 12:24:00,53.0,48.0,29.68,SE,145,5.0,8.0,83,0.01,,,0.12,weatherlink.com 1.10,2013-03-16 16:24:00,
2013-03-16 12:39:00,54.3,49.0,29.68,SSE,160,2.0,4.0,82,0.01,,,0.12,weatherlink.com 1.10,2013-03-16 16:39:00,
2013-03-16 12:54:00,56.4,50.0,29.66,SE,129,7.0,12.0,78,0.01,,,0.12,weatherlink.com 1.10,2013-03-16 16:54:00,
2013-03-16 13:09:00,58.0,49.0,29.66,South,190,7.0,12.0,73,0.01,,,0.13,weatherlink.com 1.10,2013-03-16 17:09:00,
2013-03-16 13:24:00,57.8,51.0,29.65,NW,311,5.0,10.0,78,0.03,,,0.15,weatherlink.com 1.10,2013-03-16 17:24:00,
2013-03-16 13:39:00,57.5,50.0,29.64,SSW,201,16.0,19.0,76,0.05,,,0.17,weatherlink.com 1.10,2013-03-16 17:39:00,
2013-03-16 13:54:00,58.1,51.0,29.63,SSW,198,5.0,20.0,77,0.05,,,0.17,weatherlink.com 1.10,2013-03-16 17:54:00,
2013-03-16 14:09:00,58.9,51.0,29.62,SSW,210,13.0,17.0,76,0.04,,,0.17,weatherlink.com 1.10,2013-03-16 18:09:00,
2013-03-16 14:24:00,60.1,51.0,29.61,SSW,195,9.0,22.0,72,0.02,,,0.17,weatherlink.com 1.10,2013-03-16 18:24:00,
2013-03-16 14:39:00,61.4,51.0,29.62,SW,221,14.0,18.0,68,0.00,,,0.17,weatherlink.com 1.10,2013-03-16 18:39:00,
2013-03-16 14:54:00,61.0,51.0,29.62,West,264,3.0,11.0,70,0.00,,,0.17,weatherlink.com 1.10,2013-03-16 18:54:00,
2013-03-16 15:09:00,59.9,51.0,29.63,SW,221,5.0,9.0,72,0.01,,,0.18,weatherlink.com 1.10,2013-03-16 19:09:00,
2013-03-16 15:24:00,58.8,52.0,29.62,WSW,252,3.0,10.0,78,0.03,,,0.20,weatherlink.com 1.10,2013-03-16 19:24:00,
2013-03-16 15:40:00,58.0,52.0,29.61,WSW,246,9.0,9.0,81,0.05,,,0.22,weatherlink.com 1.10,2013-03-16 19:40:00,
2013-03-16 15:55:00,56.9,53.0,29.61,SW,226,4.0,10.0,85,0.08,,,0.25,weatherlink.com 1.10,2013-03-16 19:55:00,
2013-03-16 16:10:00,57.8,53.0,29.61,SSW,198,5.0,15.0,83,0.08,,,0.26,weatherlink.com 1.10,2013-03-16 20:10:00,
2013-03-16 16:25:00,57.9,52.0,29.61,NW,326,3.0,13.0,82,0.06,,,0.26,weatherlink.com 1.10,2013-03-16 20:25:00,
2013-03-16 16:40:00,58.2,52.0,29.61,SSE,164,0.0,7.0,80,0.04,,,0.26,weatherlink.com 1.10,2013-03-16 20:40:00,
2013-03-16 16:55:00,59.3,53.0,29.61,SW,217,0.0,5.0,79,0.01,,,0.26,weatherlink.com 1.10,2013-03-16 20:55:00,
2013-03-16 17:10:00,61.9,54.0,29.62,SW,224,0.0,1.0,76,0.00,,,0.26,weatherlink.com 1.10,2013-03-16 21:10:00,
2013-03-16 17:25:00,62.5,54.0,29.61,South,173,2.0,3.0,73,0.00,,,0.26,weatherlink.com 1.10,2013-03-16 21:25:00,
2013-03-16 17:40:00,61.3,54.0,29.62,SSE,152,3.0,5.0,77,0.00,,,0.26,weatherlink.com 1.10,2013-03-16 21:40:00,
2013-03-16 17:55:00,59.7,54.0,29.64,SE,129,0.0,5.0,81,0.00,,,0.26,weatherlink.com 1.10,2013-03-16 21:55:00,
2013-03-16 18:10:00,59.1,54.0,29.64,SE,131,0.0,2.0,82,0.00,,,0.26,weatherlink.com 1.10,2013-03-16 22:10:00,
2013-03-16 18:25:00,59.3,54.0,29.65,SSW,192,1.0,5.0,81,0.00,,,0.26,weatherlink.com 1.10,2013-03-16 22:25:00,
2013-03-16 18:40:00,60.9,53.0,29.65,NNW,347,1.0,3.0,74,0.00,,,0.26,weatherlink.com 1.10,2013-03-16 22:40:00,
2013-03-16 18:55:00,60.6,53.0,29.66,WSW,239,2.0,2.0,77,0.00,,,0.26,weatherlink.com 1.10,2013-03-16 22:55:00,
2013-03-16 19:10:00,60.3,53.0,29.67,WSW,246,0.0,1.0,76,0.00,,,0.26,weatherlink.com 1.10,2013-03-16 23:10:00,
2013-03-16 19:25:00,59.2,52.0,29.68,South,184,0.0,3.0,77,0.00,,,0.26,weatherlink.com 1.10,2013-03-16 23:25:00,
2013-03-16 19:40:00,60.0,51.0,29.69,North,356,1.0,5.0,71,0.00,,,0.26,weatherlink.com 1.10,2013-03-16 23:40:00,
2013-03-16 19:55:00,60.3,50.0,29.70,WSW,251,0.0,2.0,69,0.00,,,0.26,weatherlink.com 1.10,2013-03-16 23:55:00,
2013-03-16 20:10:00,59.3,49.0,29.71,WSW,254,1.0,2.0,69,0.00,,,0.26,weatherlink.com 1.10,2013-03-17 00:10:00,
2013-03-16 20:25:00,58.9,49.0,29.73,East,79,0.0,1.0,70,0.00,,,0.26,weatherlink.com 1.10,2013-03-17 00:25:00,
2013-03-16 20:40:00,58.9,48.0,29.73,NNW,339,2.0,5.0,67,0.00,,,0.26,weatherlink.com 1.10,2013-03-17 00:40:00,
2013-03-16 20:55:00,59.5,47.0,29.75,NNW,338,2.0,4.0,63,0.00,,,0.26,weatherlink.com 1.10,2013-03-17 00:55:00,
2013-03-16 21:10:00,54.1,45.0,29.76,NNE,20,12.0,13.0,70,0.00,,,0.26,weatherlink.com 1.10,2013-03-17 01:10:00,
2013-03-16 21:25:00,48.6,43.0,29.77,NNE,19,7.0,13.0,80,0.00,,,0.26,weatherlink.com 1.10,2013-03-17 01:25:00,
2013-03-16 21:40:00,47.7,43.0,29.79,NNW,343,5.0,5.0,83,0.00,,,0.26,weatherlink.com 1.10,2013-03-17 01:40:00,
2013-03-16 21:55:00,46.8,42.0,29.81,SE,124,9.0,9.0,83,0.00,,,0.26,weatherlink.com 1.10,2013-03-17 01:55:00,
2013-03-16 22:10:00,46.4,42.0,29.81,East,89,8.0,11.0,83,0.00,,,0.26,weatherlink.com 1.10,2013-03-17 02:10:00,
2013-03-16 22:25:00,46.4,42.0,29.82,NE,50,8.0,10.0,83,0.00,,,0.26,weatherlink.com 1.10,2013-03-17 02:25:00,
2013-03-16 22:40:00,45.8,41.0,29.82,NE,54,6.0,12.0,84,0.00,,,0.26,weatherlink.com 1.10,2013-03-17 02:40:00,
2013-03-16 22:55:00,44.4,41.0,29.84,North,360,6.0,7.0,86,0.00,,,0.26,weatherlink.com 1.10,2013-03-17 02:55:00,
2013-03-16 23:10:00,43.4,40.0,29.84,NNW,330,3.0,4.0,88,0.00,,,0.26,weatherlink.com 1.10,2013-03-17 03:10:00,
2013-03-16 23:25:00,43.1,40.0,29.84,WSW,250,1.0,3.0,89,0.00,,,0.26,weatherlink.com 1.10,2013-03-17 03:25:00,
2013-03-16 23:40:00,41.9,39.0,29.85,SW,235,0.0,1.0,89,0.00,,,0.26,weatherlink.com 1.10,2013-03-17 03:40:00,
2013-03-16 23:55:00,41.1,38.0,29.85,WNW,297,2.0,4.0,89,0.00,,,0.26,weatherlink.com 1.10,2013-03-17 03:55:00,